Time;durP1;ratioP1;P1;durP2;ratioP2;P2;SDS_P1;SDS_P2;PMS_P1;PMS_P2;Temp;Humidity;BMP_temperature;BMP_pressure;BME280_temperature;BME280_humidity;BME280_pressure;Samples;Min_cycle;Max_cycle;Signal;HPM_P1;HPM_P2
2021/11/09 00:00:21;;;;;;;6.60;4.22;;;;;;;8.13;63.79;99662.16;1764303;81;21009;-36
2021/11/09 00:02:48;;;;;;;8.48;4.55;;;;;;;8.11;63.92;99662.27;1764041;81;21029;-36
2021/11/09 00:05:19;;;;;;;7.80;4.53;;;;;;;8.10;64.03;99665.53;1764050;81;21105;-36
2021/11/09 00:07:53;;;;;;;;;;;;;;;8.09;64.21;99665.86;1766661;80;20969;-36
2021/11/09 00:10:15;;;;;;;7.85;4.35;;;;;;;8.08;64.33;99666.45;1763256;81;20160;-36
2021/11/09 00:12:50;;;;;;;6.78;4.10;;;;;;;8.00;64.66;99663.27;1763992;81;21027;-37
2021/11/09 00:15:20;;;;;;;6.25;4.10;;;;;;;8.03;64.71;99673.41;1763806;80;21002;-37
2021/11/09 00:17:49;;;;;;;8.60;5.03;;;;;;;8.04;64.73;99676.31;1764203;81;21123;-37
2021/11/09 00:20:18;;;;;;;7.45;4.37;;;;;;;8.05;64.85;99670.36;1758522;81;20961;-37
2021/11/09 00:22:46;;;;;;;7.85;4.65;;;;;;;8.03;65.14;99666.66;1764354;81;21014;-38
2021/11/09 00:25:13;;;;;;;10.05;5.00;;;;;;;8.02;65.26;99673.17;1764575;81;21068;-36
2021/11/09 00:27:40;;;;;;;8.03;4.53;;;;;;;8.06;65.36;99675.99;1764280;80;21025;-37
2021/11/09 00:30:09;;;;;;;9.23;4.12;;;;;;;8.06;65.49;99676.78;1764539;81;21143;-37
2021/11/09 00:32:38;;;;;;;6.33;4.12;;;;;;;8.05;65.61;99677.11;1764167;81;21088;-37
2021/11/09 00:35:07;;;;;;;8.38;4.30;;;;;;;8.08;65.78;99673.20;1764183;80;21125;-38
2021/11/09 00:37:35;;;;;;;9.20;4.12;;;;;;;8.09;65.81;99676.66;1764295;80;21041;-37
2021/11/09 00:40:02;;;;;;;7.22;4.83;;;;;;;8.07;65.83;99680.27;1764320;81;21036;-37
2021/11/09 00:42:30;;;;;;;6.72;4.37;;;;;;;8.00;66.01;99675.41;1764072;81;21003;-36
2021/11/09 00:44:56;;;;;;;8.05;4.33;;;;;;;8.00;66.09;99676.77;1764106;81;21468;-37
2021/11/09 00:47:24;;;;;;;8.25;4.45;;;;;;;7.97;66.10;99676.09;1763970;81;21049;-37
2021/11/09 00:49:51;;;;;;;11.60;4.67;;;;;;;7.98;66.17;99674.98;1764004;81;21004;-37
2021/11/09 00:52:18;;;;;;;6.25;4.30;;;;;;;7.97;66.18;99682.84;1764088;79;21516;-36
2021/11/09 00:54:45;;;;;;;8.58;4.50;;;;;;;7.95;66.23;99686.42;1764005;80;21817;-37
2021/11/09 00:57:11;;;;;;;7.28;4.58;;;;;;;7.94;66.25;99679.44;1763926;81;20972;-36
2021/11/09 00:59:39;;;;;;;6.85;4.60;;;;;;;7.90;66.36;99685.28;1764183;81;21518;-37
2021/11/09 01:02:06;;;;;;;8.83;4.95;;;;;;;7.88;66.49;99684.84;1763975;81;21032;-37
2021/11/09 01:04:34;;;;;;;5.75;4.28;;;;;;;7.86;66.57;99683.81;1764134;80;21003;-37
2021/11/09 01:07:01;;;;;;;7.72;4.35;;;;;;;7.86;66.60;99685.17;1764262;81;21114;-37
2021/11/09 01:09:27;;;;;;;9.45;4.50;;;;;;;7.89;66.64;99693.73;1764197;81;21653;-37
2021/11/09 01:11:54;;;;;;;7.25;4.17;;;;;;;7.92;66.64;99687.66;1764290;81;21036;-37
2021/11/09 01:14:23;;;;;;;6.30;4.40;;;;;;;7.93;66.62;99688.69;1764296;81;21008;-36
2021/11/09 01:16:50;;;;;;;6.65;4.33;;;;;;;7.96;66.66;99696.66;1758357;81;21058;-37
2021/11/09 01:19:17;;;;;;;5.12;3.92;;;;;;;7.94;66.62;99705.08;1764266;81;22212;-37
2021/11/09 01:21:44;;;;;;;4.65;3.58;;;;;;;7.92;66.44;99700.59;1764270;81;21562;-36
2021/11/09 01:24:14;;;;;;;7.08;3.67;;;;;;;7.91;66.36;99707.11;1764069;81;21653;-36
2021/11/09 01:26:41;;;;;;;4.47;3.53;;;;;;;7.90;66.26;99708.23;1764379;81;21041;-37
2021/11/09 01:29:08;;;;;;;7.00;3.75;;;;;;;7.90;66.05;99715.53;1764181;81;21252;-36
2021/11/09 01:31:35;;;;;;;4.35;2.90;;;;;;;7.88;66.07;99719.14;1764159;80;21890;-36
2021/11/09 01:34:03;;;;;;;4.80;3.00;;;;;;;7.89;65.88;99725.54;1740333;81;21555;-37
2021/11/09 01:36:29;;;;;;;5.70;3.22;;;;;;;7.88;65.61;99719.94;1763999;81;22088;-37
2021/11/09 01:38:56;;;;;;;4.25;2.70;;;;;;;7.82;65.70;99728.80;1764057;81;21024;-37
2021/11/09 01:41:23;;;;;;;4.72;2.83;;;;;;;7.79;65.61;99719.23;1764017;81;21100;-37
2021/11/09 01:43:51;;;;;;;4.55;2.17;;;;;;;7.78;66.00;99725.75;1764190;81;21111;-36
2021/11/09 01:46:18;;;;;;;3.27;1.77;;;;;;;7.77;65.89;99724.95;1763929;81;20968;-37
2021/11/09 01:48:45;;;;;;;3.08;1.95;;;;;;;7.78;65.97;99729.80;1763969;81;21039;-37
2021/11/09 01:51:15;;;;;;;2.77;1.70;;;;;;;7.78;65.95;99726.53;1763965;81;21617;-37
2021/11/09 01:53:45;;;;;;;1.80;1.50;;;;;;;7.76;66.26;99722.58;1764039;80;21591;-36
2021/11/09 01:56:16;;;;;;;2.10;1.50;;;;;;;7.73;66.17;99724.59;1764593;81;21092;-36
2021/11/09 01:58:43;;;;;;;2.20;1.55;;;;;;;7.71;66.36;99732.22;1764225;81;21029;-37
2021/11/09 02:01:15;;;;;;;2.22;1.50;;;;;;;7.65;66.68;99729.52;1764232;81;21045;-36
2021/11/09 02:03:46;;;;;;;2.37;1.50;;;;;;;7.31;66.74;99677.41;1758386;81;21015;-36
2021/11/09 02:06:14;;;;;;;2.65;1.35;;;;;;;7.72;66.82;99738.65;1764259;81;21457;-37
2021/11/09 02:08:41;;;;;;;1.60;1.20;;;;;;;7.78;66.69;99747.33;1763805;81;21876;-37
2021/11/09 02:11:09;;;;;;;2.05;1.32;;;;;;;7.76;66.77;99753.05;1763831;81;21006;-36
2021/11/09 02:13:37;;;;;;;1.42;1.17;;;;;;;7.79;66.88;99751.62;1763871;81;21039;-36
2021/11/09 02:16:05;;;;;;;2.12;1.22;;;;;;;7.81;66.60;99750.16;1763819;81;21037;-36
2021/11/09 02:18:33;;;;;;;1.85;1.50;;;;;;;7.76;66.57;99750.91;1764102;81;21008;-37
2021/11/09 02:21:10;;;;;;;1.62;1.42;;;;;;;7.72;66.62;99754.84;1763877;81;21148;-36
2021/11/09 02:23:43;;;;;;;1.27;1.10;;;;;;;7.70;66.70;99762.47;1763839;81;20976;-37
2021/11/09 02:26:11;;;;;;;1.62;1.22;;;;;;;7.69;66.90;99762.26;1763896;81;20972;-37
2021/11/09 02:28:40;;;;;;;1.37;1.22;;;;;;;7.76;66.87;99763.05;1758069;80;21024;-36
2021/11/09 02:31:07;;;;;;;1.70;1.40;;;;;;;7.79;66.91;99773.21;1763893;81;21099;-36
2021/11/09 02:33:36;;;;;;;2.52;1.70;;;;;;;7.80;66.89;99770.72;1763888;81;20973;-36
2021/11/09 02:36:03;;;;;;;1.92;1.55;;;;;;;7.79;66.67;99767.23;1763911;81;21033;-36
2021/11/09 02:38:30;;;;;;;2.77;1.60;;;;;;;7.77;66.64;99772.73;1764208;81;20973;-36
2021/11/09 02:40:58;;;;;;;1.82;1.17;;;;;;;7.77;66.58;99770.04;1764038;81;21111;-36
2021/11/09 02:43:25;;;;;;;2.65;1.30;;;;;;;7.79;66.61;99775.33;1764170;80;21040;-36
2021/11/09 02:48:29;;;;;;;2.65;1.70;;;;;;;7.80;66.37;99782.86;1764248;80;21032;-36
2021/11/09 02:50:57;;;;;;;2.42;1.70;;;;;;;7.76;66.43;99782.74;1763075;81;20902;-36
2021/11/09 02:53:33;;;;;;;2.40;1.30;;;;;;;7.75;66.63;99787.91;1763726;79;21467;-36
2021/11/09 02:55:59;;;;;;;1.98;1.37;;;;;;;7.74;66.36;99786.91;1742383;81;21052;-36
2021/11/09 02:58:43;;;;;;;2.12;1.30;;;;;;;7.70;66.32;99790.80;1732838;82;21150;-36
2021/11/09 03:03:49;;;;;;;1.95;1.32;;;;;;;7.72;65.74;99789.13;1733523;82;21117;-36
2021/11/09 03:08:49;;;;;;;1.70;1.05;;;;;;;7.74;65.25;99789.05;1830478;78;22148;-37
2021/11/09 03:11:15;;;;;;;;;;;;;;;7.63;65.14;99796.51;1805342;79;21545;-36
2021/11/09 03:13:44;;;;;;;2.15;1.35;;;;;;;7.63;64.92;99799.20;1802859;79;21107;-36
2021/11/09 03:16:12;;;;;;;1.17;1.00;;;;;;;7.54;64.89;99803.32;1802750;79;20923;-37
2021/11/09 03:18:52;;;;;;;;;;;;;;;7.54;64.36;99806.58;1780547;79;20886;-36
2021/11/09 03:40:38;;;;;;;3.90;0.90;;;;;;;7.42;63.58;99832.34;1771293;81;21898;-37
2021/11/09 03:45:31;;;;;;;1.47;1.05;;;;;;;7.35;63.44;99831.29;1771356;81;20964;-36
2021/11/09 03:48:05;;;;;;;2.12;1.00;;;;;;;7.26;63.59;99835.94;1771203;81;21016;-36
2021/11/09 03:50:29;;;;;;;1.50;1.10;;;;;;;7.21;63.57;99841.52;1771726;79;21033;-36
2021/11/09 03:53:04;;;;;;;2.33;1.20;;;;;;;7.15;63.78;99836.86;1771394;81;21133;-36
2021/11/09 03:56:13;;;;;;;2.02;1.00;;;;;;;7.19;63.78;99847.23;1771372;79;20918;-37
2021/11/09 03:58:08;;;;;;;1.10;0.78;;;;;;;7.25;63.45;99847.28;1796376;79;21013;-36
2021/11/09 04:00:44;;;;;;;1.15;0.82;;;;;;;7.24;63.18;99848.39;1802756;79;21488;-36
2021/11/09 04:03:26;;;;;;;1.62;1.10;;;;;;;7.19;63.12;99848.58;1800828;79;21018;-36
2021/11/09 04:05:46;;;;;;;1.45;1.00;;;;;;;7.16;63.06;99851.94;1801041;79;20957;-36
2021/11/09 04:08:40;;;;;;;1.02;0.90;;;;;;;7.16;62.91;99848.45;1784420;79;20921;-35
2021/11/09 04:11:16;;;;;;;1.90;1.30;;;;;;;7.14;62.71;99837.18;1773309;80;21506;-36
2021/11/09 04:13:48;;;;;;;3.02;1.05;;;;;;;7.12;62.51;99838.05;1773198;80;20984;-37
2021/11/09 04:22:06;;;;;;;1.80;1.02;;;;;;;6.95;62.05;99841.63;1754432;81;20887;-36
2021/11/09 04:27:06;;;;;;;2.33;0.95;;;;;;;6.80;61.78;99846.20;1760032;80;20961;-37
2021/11/09 04:29:47;;;;;;;1.27;0.80;;;;;;;6.72;61.82;99863.19;1759585;81;21029;-36
2021/11/09 04:32:19;;;;;;;2.08;0.95;;;;;;;6.59;61.81;99864.15;1762623;79;21120;-37
2021/11/09 04:35:02;;;;;;;1.00;0.88;;;;;;;6.48;61.76;99869.91;1760482;80;21055;-36
2021/11/09 05:09:40;;;;;;;1.47;1.30;;;;;;;5.34;63.50;99920.94;1760160;81;21088;-36
2021/11/09 05:12:07;;;;;;;2.98;1.75;;;;;;;5.29;63.83;99921.08;1754232;79;21081;-37
2021/11/09 05:14:34;;;;;;;3.33;1.75;;;;;;;5.25;63.90;99924.14;1760059;81;21000;-36
2021/11/09 05:17:01;;;;;;;3.12;1.72;;;;;;;5.23;63.91;99937.09;1760015;80;21472;-36
2021/11/09 05:19:29;;;;;;;1.85;1.50;;;;;;;5.21;64.03;99942.00;1760207;81;21080;-37
2021/11/09 05:21:56;;;;;;;3.67;2.12;;;;;;;5.16;64.04;99945.62;1760309;80;21017;-36
2021/11/09 05:24:24;;;;;;;1.50;1.40;;;;;;;5.15;64.11;99948.05;1760159;80;21120;-37
2021/11/09 05:26:51;;;;;;;3.25;1.90;;;;;;;5.17;64.33;99963.88;1760296;81;20938;-37
2021/11/09 05:29:18;;;;;;;3.52;2.15;;;;;;;5.21;64.42;99969.67;1760213;81;21049;-37
2021/11/09 05:31:44;;;;;;;3.05;1.67;;;;;;;5.27;64.42;99975.72;1760210;81;22203;-37
2021/11/09 05:34:11;;;;;;;3.50;2.10;;;;;;;5.25;64.19;99982.73;1760020;81;21053;-36
2021/11/09 05:36:40;;;;;;;2.50;1.80;;;;;;;5.18;64.25;99988.32;1760359;81;21630;-37
2021/11/09 05:39:22;;;;;;;2.98;2.40;;;;;;;5.08;64.37;99986.66;1759883;80;21085;-37
2021/11/09 05:41:45;;;;;;;3.00;2.37;;;;;;;5.04;64.68;99994.30;1760871;79;20910;-37
2021/11/09 05:44:12;;;;;;;3.35;2.15;;;;;;;4.98;64.86;99990.17;1759983;80;21021;-36
2021/11/09 05:46:40;;;;;;;4.05;1.98;;;;;;;5.01;65.10;99989.55;1759963;80;21065;-37
2021/11/09 05:49:06;;;;;;;2.98;1.67;;;;;;;5.07;65.03;99992.36;1759833;81;21090;-36
2021/11/09 05:51:33;;;;;;;2.65;1.92;;;;;;;5.16;64.72;99990.52;1760238;80;21029;-36
2021/11/09 05:54:00;;;;;;;4.10;2.00;;;;;;;5.19;64.60;99996.05;1759997;81;20977;-37
2021/11/09 05:56:28;;;;;;;3.67;2.40;;;;;;;5.22;64.56;100001.38;1760146;80;21488;-36
2021/11/09 05:58:55;;;;;;;2.10;1.90;;;;;;;5.24;64.37;100008.57;1760083;81;21564;-37
2021/11/09 06:01:22;;;;;;;3.98;1.82;;;;;;;5.23;64.18;100011.81;1760149;81;21120;-36
2021/11/09 06:03:49;;;;;;;3.90;1.80;;;;;;;5.22;64.20;100018.86;1760018;80;21806;-37
2021/11/09 06:06:15;;;;;;;2.20;1.80;;;;;;;5.22;63.81;100025.58;1754518;80;20969;-37
2021/11/09 06:08:42;;;;;;;2.95;1.90;;;;;;;5.21;63.18;100029.36;1765014;81;21033;-37
2021/11/09 06:11:09;;;;;;;2.15;1.50;;;;;;;5.12;62.69;100036.03;1768201;81;21100;-37
2021/11/09 06:13:37;;;;;;;2.40;1.77;;;;;;;5.06;62.58;100041.28;1768359;80;21016;-37
2021/11/09 06:16:05;;;;;;;2.15;1.50;;;;;;;5.03;62.93;100039.22;1768136;80;21005;-36
2021/11/09 06:18:33;;;;;;;1.67;1.40;;;;;;;5.08;62.87;100042.33;1791453;79;21004;-37
2021/11/09 06:21:00;;;;;;;2.67;1.72;;;;;;;5.16;62.58;100050.44;1799726;79;20919;-37
2021/11/09 06:23:26;;;;;;;2.20;1.50;;;;;;;5.20;62.42;100050.61;1799822;79;21068;-37
2021/11/09 06:25:53;;;;;;;4.03;1.60;;;;;;;5.22;62.55;100056.48;1799718;78;21563;-37
2021/11/09 06:28:21;;;;;;;1.77;1.40;;;;;;;5.24;62.30;100059.64;1799655;79;21004;-36
2021/11/09 06:30:51;;;;;;;1.75;1.50;;;;;;;5.25;61.85;100067.96;1799811;79;20960;-37
2021/11/09 06:33:19;;;;;;;2.23;1.60;;;;;;;5.26;61.85;100073.59;1800086;79;21599;-37
2021/11/09 06:35:45;;;;;;;2.10;1.77;;;;;;;5.25;61.76;100074.14;1799845;79;21050;-37
2021/11/09 06:38:12;;;;;;;2.37;1.95;;;;;;;5.25;61.92;100076.83;1799587;79;21199;-38
2021/11/09 06:40:39;;;;;;;2.12;1.85;;;;;;;5.29;62.05;100081.03;1799597;79;20910;-37
2021/11/09 06:43:06;;;;;;;2.27;1.85;;;;;;;5.32;61.81;100084.47;1793655;79;20957;-37
2021/11/09 06:45:35;;;;;;;1.87;1.77;;;;;;;5.31;61.32;100083.42;1769404;79;20987;-37
2021/11/09 06:48:05;;;;;;;2.83;2.12;;;;;;;5.25;61.29;100084.89;1799850;78;26852;-37
2021/11/09 06:50:34;;;;;;;3.05;1.90;;;;;;;5.21;61.46;100086.61;1769268;79;21127;-37
2021/11/09 06:53:01;;;;;;;3.27;2.10;;;;;;;5.19;61.54;100089.34;1793257;79;21530;-37
2021/11/09 06:55:28;;;;;;;3.42;2.00;;;;;;;5.14;61.46;100095.63;1799908;79;21021;-37
2021/11/09 06:57:55;;;;;;;2.85;2.05;;;;;;;5.07;61.45;100094.48;1799827;78;21072;-37
2021/11/09 07:00:23;;;;;;;2.17;1.98;;;;;;;5.02;61.73;100101.31;1800207;79;21006;-37
2021/11/09 07:02:50;;;;;;;2.08;1.80;;;;;;;5.04;61.97;100112.53;1799800;78;21105;-37
2021/11/09 07:05:21;;;;;;;2.87;1.77;;;;;;;5.09;61.62;100109.73;1799994;79;21034;-37
2021/11/09 07:07:46;;;;;;;2.00;1.80;;;;;;;5.14;61.45;100113.65;1800149;79;21599;-37
2021/11/09 07:10:12;;;;;;;2.15;1.90;;;;;;;5.15;61.36;100116.04;1808187;79;20964;-36
2021/11/09 07:12:40;;;;;;;2.33;2.00;;;;;;;4.80;61.18;100070.63;1808340;78;21079;-37
2021/11/09 07:15:11;;;;;;;2.70;1.85;;;;;;;5.18;61.06;100125.41;1808135;78;21547;-37
2021/11/09 07:17:41;;;;;;;5.23;2.30;;;;;;;5.20;60.99;100127.22;1808426;79;20945;-37
2021/11/09 07:20:10;;;;;;;3.05;2.00;;;;;;;5.22;60.83;100129.86;1808351;79;21554;-37
2021/11/09 07:22:38;;;;;;;3.05;2.10;;;;;;;5.24;60.94;100138.41;1808260;79;21483;-37
2021/11/09 07:25:07;;;;;;;3.75;2.30;;;;;;;5.30;60.08;100142.31;1808065;78;21025;-37
2021/11/09 07:27:34;;;;;;;3.87;2.52;;;;;;;5.27;59.26;100147.77;1808081;79;21121;-37
2021/11/09 07:30:03;;;;;;;2.70;2.00;;;;;;;5.30;59.32;100152.52;1808029;79;20984;-37
2021/11/09 07:32:29;;;;;;;3.52;2.08;;;;;;;5.33;59.13;100157.28;1808208;78;20969;-37
2021/11/09 07:34:56;;;;;;;4.15;2.37;;;;;;;5.38;59.36;100162.54;1808087;79;21498;-37
2021/11/09 07:37:24;;;;;;;4.10;2.40;;;;;;;5.45;59.19;100157.54;1808414;78;21029;-37
2021/11/09 07:39:51;;;;;;;7.00;2.98;;;;;;;5.54;58.93;100162.97;1808175;79;21138;-37
2021/11/09 07:42:18;;;;;;;5.20;2.40;;;;;;;5.63;58.38;100159.79;1808249;79;20929;-37
2021/11/09 07:44:45;;;;;;;3.12;1.72;;;;;;;5.72;58.32;100163.88;1808387;79;21009;-37
2021/11/09 07:47:11;;;;;;;4.92;2.95;;;;;;;5.83;57.85;100171.39;1808198;79;21103;-37
2021/11/09 07:49:38;;;;;;;1.75;1.40;;;;;;;5.89;57.53;100172.09;1808500;79;21021;-37
2021/11/09 07:52:07;;;;;;;2.80;1.50;;;;;;;5.91;57.29;100177.39;1808351;79;21492;-37
2021/11/09 07:54:36;;;;;;;1.80;1.37;;;;;;;5.94;56.99;100182.18;1808460;79;20984;-36
2021/11/09 07:57:12;;;;;;;1.90;1.57;;;;;;;5.91;56.88;100188.70;1808584;78;21715;-37
2021/11/09 07:59:46;;;;;;;6.40;2.60;;;;;;;5.91;57.22;100190.05;1807956;79;21830;-37
2021/11/09 08:02:11;;;;;;;4.53;2.20;;;;;;;5.90;56.56;100189.83;1807145;79;20997;-37
2021/11/09 08:04:43;;;;;;;3.98;2.90;;;;;;;5.91;56.10;100190.05;1808304;78;21121;-37
2021/11/09 08:07:20;;;;;;;5.55;2.45;;;;;;;5.93;55.98;100201.31;1808117;78;21574;-37
2021/11/09 08:09:45;;;;;;;2.95;2.05;;;;;;;5.97;55.71;100203.63;1801849;78;20984;-36
2021/11/09 08:12:12;;;;;;;4.58;2.05;;;;;;;5.97;55.51;100212.50;1799737;78;21024;-37
2021/11/09 08:14:39;;;;;;;3.98;2.30;;;;;;;5.96;55.34;100215.49;1799770;79;20982;-36
2021/11/09 08:17:06;;;;;;;2.98;2.25;;;;;;;5.92;55.43;100215.87;1799830;78;21810;-36
2021/11/09 08:19:33;;;;;;;2.20;1.60;;;;;;;5.91;55.56;100214.27;1799713;79;21020;-36
2021/11/09 08:22:00;;;;;;;2.25;1.40;;;;;;;5.90;55.83;100228.86;1799671;79;20989;-37
2021/11/09 08:24:27;;;;;;;3.20;1.87;;;;;;;5.85;55.50;100236.47;1799607;79;20957;-36
2021/11/09 08:26:56;;;;;;;2.80;2.15;;;;;;;5.80;55.85;100231.77;1799640;79;21936;-37
2021/11/09 08:29:26;;;;;;;1.47;1.10;;;;;;;5.81;56.08;100234.70;1799691;79;21113;-38
2021/11/09 08:31:51;;;;;;;3.72;2.35;;;;;;;5.85;55.84;100232.98;1799724;78;20988;-36
2021/11/09 08:34:19;;;;;;;3.17;2.20;;;;;;;5.86;55.51;100242.08;1799799;79;21035;-37
2021/11/09 08:36:45;;;;;;;2.52;2.10;;;;;;;5.87;55.53;100243.70;1799650;79;21005;-36
2021/11/09 08:39:19;;;;;;;2.12;1.82;;;;;;;5.87;55.48;100248.28;1799872;78;21001;-37
2021/11/09 08:41:56;;;;;;;;;;;;;;;5.88;55.77;100247.19;1802481;78;21122;-38
2021/11/09 08:44:20;;;;;;;2.40;1.50;;;;;;;5.91;55.47;100256.78;1798542;79;20488;-37
2021/11/09 08:46:52;;;;;;;2.22;1.40;;;;;;;5.74;54.90;100251.81;1799767;78;20997;-37
2021/11/09 08:49:20;;;;;;;1.62;1.00;;;;;;;5.68;55.37;100249.78;1799848;79;20957;-36
2021/11/09 08:51:49;;;;;;;1.45;1.00;;;;;;;5.67;54.92;100253.56;1799890;78;21005;-36
2021/11/09 08:54:22;;;;;;;3.27;1.33;;;;;;;5.60;54.50;100260.73;1799977;79;21122;-36
2021/11/09 08:56:58;;;;;;;1.42;1.30;;;;;;;5.53;55.04;100269.76;1800012;79;20962;-37
2021/11/09 09:04:54;;;;;;;2.98;2.45;;;;;;;5.42;55.05;100277.80;1800057;78;21476;-35
2021/11/09 09:07:24;;;;;;;2.27;1.60;;;;;;;5.40;54.99;100286.73;1799563;78;21138;-36
2021/11/09 09:09:51;;;;;;;2.45;1.75;;;;;;;5.37;54.93;100292.73;1794110;78;20957;-37
2021/11/09 09:12:20;;;;;;;4.72;2.90;;;;;;;5.38;54.84;100295.64;1791487;80;21029;-36
2021/11/09 09:14:48;;;;;;;2.50;1.95;;;;;;;5.44;54.75;100293.09;1791372;79;21484;-37
2021/11/09 09:17:15;;;;;;;4.22;1.95;;;;;;;5.55;54.42;100297.16;1791168;80;21096;-37
2021/11/09 09:19:47;;;;;;;3.12;2.00;;;;;;;5.72;53.61;100295.70;1791341;80;21473;-37
2021/11/09 09:22:12;;;;;;;2.27;1.50;;;;;;;5.88;53.61;100300.47;1791327;79;20993;-37
2021/11/09 09:27:31;;;;;;;2.25;1.60;;;;;;;6.22;52.75;100309.34;1791451;79;21018;-37
2021/11/09 09:55:12;;;;;;;1.60;1.40;;;;;;;7.83;46.83;100324.25;1791455;80;21519;-37
2021/11/09 09:57:19;;;;;;;1.98;1.30;;;;;;;7.78;45.20;100323.60;1792038;79;21123;-37
2021/11/09 09:59:47;;;;;;;3.83;1.98;;;;;;;7.67;45.30;100330.41;1791306;80;21130;-38
2021/11/09 10:02:24;;;;;;;3.98;1.87;;;;;;;7.59;45.42;100336.61;1791193;80;21080;-37
2021/11/09 10:04:59;;;;;;;2.55;1.82;;;;;;;7.44;45.58;100341.89;1791427;79;20926;-37
2021/11/09 10:07:31;;;;;;;1.75;1.30;;;;;;;7.27;45.49;100337.23;1791325;79;21005;-36
2021/11/09 10:09:58;;;;;;;1.75;1.35;;;;;;;7.15;46.35;100339.75;1778651;79;20997;-37
2021/11/09 10:12:36;;;;;;;1.20;1.10;;;;;;;7.12;46.11;100341.71;1766669;81;21109;-37
2021/11/09 10:15:13;;;;;;;1.10;0.95;;;;;;;7.16;45.69;100344.05;1772132;80;21538;-37
2021/11/09 10:17:47;;;;;;;1.62;1.17;;;;;;;7.28;45.06;100342.88;1779159;80;25262;-37
2021/11/09 10:20:21;;;;;;;1.30;0.90;;;;;;;7.50;44.48;100343.34;1790400;79;21025;-37
2021/11/09 10:22:55;;;;;;;1.62;1.52;;;;;;;7.65;44.37;100346.14;1791495;80;21606;-37
2021/11/09 10:25:22;;;;;;;1.15;0.90;;;;;;;7.81;44.16;100336.45;1791351;80;21087;-36
2021/11/09 10:27:53;;;;;;;1.60;1.10;;;;;;;8.04;44.29;100340.58;1791234;80;21018;-36
2021/11/09 10:30:24;;;;;;;;;;;;;;;8.36;43.14;100328.52;1793938;80;20958;-37
2021/11/09 10:32:50;;;;;;;1.20;0.88;;;;;;;8.61;43.51;100341.19;1785368;79;20158;-36
2021/11/09 10:35:18;;;;;;;1.17;1.05;;;;;;;8.83;42.51;100339.36;1791310;80;21053;-37
2021/11/09 10:37:51;;;;;;;1.02;0.90;;;;;;;9.14;41.19;100339.32;1791376;80;21116;-36
2021/11/09 10:40:23;;;;;;;1.17;1.07;;;;;;;9.39;39.07;100336.80;1791241;80;21081;-37
2021/11/09 10:42:56;;;;;;;2.12;1.20;;;;;;;9.52;39.45;100335.76;1791180;80;20985;-36
2021/11/09 10:45:24;;;;;;;1.10;0.90;;;;;;;9.58;40.00;100342.58;1791141;80;21010;-37
2021/11/09 10:47:54;;;;;;;2.47;0.93;;;;;;;9.53;39.77;100346.83;1791692;80;21511;-38
2021/11/09 10:50:27;;;;;;;4.17;1.02;;;;;;;9.48;39.74;100342.95;1791349;79;21109;-37
2021/11/09 10:53:15;;;;;;;1.20;0.90;;;;;;;9.48;40.25;100341.05;1791135;80;20957;-38
2021/11/09 10:56:23;;;;;;;2.22;1.00;;;;;;;9.72;40.06;100349.89;1791298;80;20961;-37
2021/11/09 10:59:12;;;;;;;1.45;0.82;;;;;;;10.01;38.84;100347.67;1790219;79;20957;-37
2021/11/09 11:04:37;;;;;;;2.65;1.10;;;;;;;10.42;38.56;100359.03;1791435;80;21103;-38
2021/11/09 11:07:08;;;;;;;1.47;1.10;;;;;;;10.86;37.66;100367.75;1791143;80;20958;-38
2021/11/09 11:09:38;;;;;;;1.70;1.07;;;;;;;11.28;36.11;100363.48;1793659;79;21052;-38
2021/11/09 11:12:14;;;;;;;2.62;1.42;;;;;;;11.64;35.82;100367.55;1799769;79;20998;-38
2021/11/09 11:14:42;;;;;;;1.52;1.10;;;;;;;11.96;34.47;100372.59;1799860;79;21539;-38
2021/11/09 11:17:16;;;;;;;3.90;2.27;;;;;;;12.19;34.81;100373.68;1799702;79;21036;-38
2021/11/09 11:19:45;;;;;;;1.00;0.90;;;;;;;12.40;34.31;100363.16;1794241;79;20961;-38
2021/11/09 11:22:17;;;;;;;2.87;0.97;;;;;;;12.47;33.28;100362.00;1799877;79;21037;-38
2021/11/09 11:24:53;;;;;;;2.67;1.47;;;;;;;12.51;32.67;100362.31;1799705;79;20970;-38
2021/11/09 11:27:20;;;;;;;2.08;1.15;;;;;;;12.54;33.65;100368.41;1799620;79;21037;-38
2021/11/09 11:29:47;;;;;;;1.67;0.80;;;;;;;12.74;33.70;100372.05;1800203;79;21102;-38
2021/11/09 11:32:21;;;;;;;1.20;0.80;;;;;;;12.93;32.74;100380.32;1800066;78;21555;-38
2021/11/09 11:34:49;;;;;;;2.42;0.98;;;;;;;13.04;32.35;100372.43;1800330;78;21040;-38
2021/11/09 11:37:20;;;;;;;1.25;0.90;;;;;;;13.16;32.32;100372.39;1799903;78;21001;-38
2021/11/09 11:39:54;;;;;;;1.32;0.90;;;;;;;13.24;31.58;100374.70;1800252;79;21056;-38
2021/11/09 11:42:19;;;;;;;2.12;1.00;;;;;;;13.24;31.71;100376.86;1800004;79;21050;-39
2021/11/09 11:44:59;;;;;;;1.10;0.82;;;;;;;13.34;31.45;100374.96;1800248;79;21024;-38
2021/11/09 11:47:26;;;;;;;;;;;;;;;13.46;31.84;100376.20;1802233;79;21316;-38
2021/11/09 11:49:59;;;;;;;0.90;0.68;;;;;;;13.62;31.27;100392.53;1794253;79;20126;-38
2021/11/09 11:52:35;;;;;;;1.02;0.93;;;;;;;13.53;30.96;100397.95;1798530;79;21475;-38
2021/11/09 11:55:09;;;;;;;1.15;0.80;;;;;;;13.24;30.75;100350.98;1796245;79;21119;-38
2021/11/09 11:57:44;;;;;;;1.65;1.32;;;;;;;13.53;30.95;100394.66;1799810;79;21337;-38
2021/11/09 12:00:39;;;;;;;1.25;1.15;;;;;;;13.61;31.21;100399.69;1790226;79;20941;-38
2021/11/09 12:03:26;;;;;;;11.50;1.50;;;;;;;13.63;30.86;100402.30;1799754;79;21428;-38
2021/11/09 12:05:57;;;;;;;4.95;1.35;;;;;;;13.40;31.12;100413.05;1799758;78;20950;-39
2021/11/09 12:08:39;;;;;;;6.75;1.00;;;;;;;13.16;31.03;100411.87;1799919;79;21091;-38
2021/11/09 12:11:10;;;;;;;1.25;1.07;;;;;;;12.84;31.15;100425.17;1787432;79;21001;-38
2021/11/09 12:13:56;;;;;;;26.57;2.25;;;;;;;12.42;31.18;100429.67;1787896;80;21033;-38
2021/11/09 12:16:48;;;;;;;2.40;1.42;;;;;;;12.10;31.81;100429.33;1776913;79;21513;-37
2021/11/09 12:19:44;;;;;;;10.93;2.02;;;;;;;11.87;32.49;100424.92;1764606;79;21793;-38
2021/11/09 12:22:13;;;;;;;4.97;1.10;;;;;;;11.79;32.63;100433.20;1773719;80;21090;-38
2021/11/09 12:24:59;;;;;;;2.15;1.00;;;;;;;11.45;32.65;100433.06;1785171;78;21005;-37
2021/11/09 12:27:56;;;;;;;3.37;1.25;;;;;;;11.11;33.21;100435.62;1768859;80;20902;-38
2021/11/09 12:30:37;;;;;;;1.20;0.90;;;;;;;10.66;33.92;100440.47;1785297;80;21022;-37
2021/11/09 12:33:36;;;;;;;1.12;1.02;;;;;;;10.10;34.69;100449.20;1791420;79;21069;-37
2021/11/09 12:36:06;;;;;;;0.93;0.82;;;;;;;9.78;35.71;100456.10;1787064;79;21135;-37
2021/11/09 12:38:49;;;;;;;1.02;0.88;;;;;;;9.50;36.14;100462.51;1791632;79;20996;-38
2021/11/09 12:41:27;;;;;;;2.55;1.40;;;;;;;9.30;36.72;100465.92;1789221;80;20966;-37
2021/11/09 12:44:04;;;;;;;1.50;1.20;;;;;;;9.17;37.29;100471.78;1770168;80;21072;-37
2021/11/09 12:46:38;;;;;;;3.20;1.50;;;;;;;8.96;37.61;100478.42;1779159;78;21528;-36
2021/11/09 12:49:24;;;;;;;2.67;1.30;;;;;;;8.72;37.85;100487.59;1776425;79;21523;-36
2021/11/09 12:51:52;;;;;;;2.77;1.50;;;;;;;8.47;37.99;100488.42;1766517;79;20906;-36
2021/11/09 12:54:24;;;;;;;2.60;1.80;;;;;;;8.25;38.53;100492.02;1769147;80;21037;-36
2021/11/09 12:56:57;;;;;;;2.33;1.90;;;;;;;8.12;39.00;100492.41;1768659;79;21072;-37
2021/11/09 12:59:36;;;;;;;;;;;;;;;8.03;39.33;100498.90;1783557;80;21034;-37
2021/11/09 13:07:36;;;;;;;3.00;1.27;;;;;;;7.45;40.23;100512.11;1791688;80;20993;-36
2021/11/09 13:10:07;;;;;;;3.27;1.40;;;;;;;7.26;40.55;100512.31;1790651;79;21028;-36
2021/11/09 13:12:35;;;;;;;2.35;1.30;;;;;;;7.12;41.14;100529.13;1784259;79;20984;-37
2021/11/09 13:15:08;;;;;;;2.42;1.42;;;;;;;7.01;41.45;100524.30;1784604;79;21124;-38
2021/11/09 13:17:48;;;;;;;1.42;1.20;;;;;;;6.89;41.70;100525.64;1788987;80;20918;-37
2021/11/09 13:20:24;;;;;;;2.10;1.30;;;;;;;6.75;42.24;100533.53;1788972;79;20966;-36
2021/11/09 13:23:06;;;;;;;3.92;1.72;;;;;;;6.59;42.62;100539.81;1786639;79;21001;-37
2021/11/09 13:25:54;;;;;;;1.35;1.20;;;;;;;6.47;42.88;100544.41;1779959;78;21562;-36
2021/11/09 13:28:35;;;;;;;2.70;1.40;;;;;;;6.36;43.30;100543.02;1787709;79;21166;-37
2021/11/09 13:31:07;;;;;;;2.92;1.47;;;;;;;6.30;43.41;100548.27;1782397;79;21092;-37
2021/11/09 13:33:39;;;;;;;3.55;1.50;;;;;;;6.22;43.76;100557.06;1790555;80;20966;-37
2021/11/09 13:36:08;;;;;;;1.92;1.25;;;;;;;6.17;43.97;100556.36;1780112;80;20926;-35
2021/11/09 13:38:42;;;;;;;2.35;1.50;;;;;;;6.09;43.93;100571.34;1783732;79;21076;-37
2021/11/09 13:41:26;;;;;;;10.28;1.50;;;;;;;6.04;44.15;100575.47;1786820;79;21092;-36
2021/11/09 13:43:55;;;;;;;2.35;1.15;;;;;;;5.93;44.31;100580.25;1781281;80;21576;-39